createdAt,value
2019-05-16T00:01:12.319Z,99.90
2019-05-16T00:03:39.270Z,99.90
2019-05-16T00:06:08.440Z,99.90
2019-05-16T00:08:33.664Z,99.90
2019-05-16T00:11:00.508Z,99.90
2019-05-16T00:13:28.006Z,99.90
2019-05-16T00:15:54.091Z,99.90
2019-05-16T00:18:28.452Z,99.90
2019-05-16T00:20:55.456Z,99.90
2019-05-16T00:23:22.197Z,99.90
2019-05-16T00:25:48.940Z,99.90
2019-05-16T00:28:17.873Z,99.90
2019-05-16T00:30:42.630Z,99.90
2019-05-16T00:33:09.368Z,99.90
2019-05-16T00:35:36.107Z,99.90
2019-05-16T00:38:03.057Z,99.90
2019-05-16T00:40:29.996Z,99.90
2019-05-16T00:42:58.869Z,99.90
2019-05-16T00:45:24.604Z,99.90
2019-05-16T00:47:51.548Z,99.90
2019-05-16T00:50:18.554Z,99.90
2019-05-16T00:52:45.235Z,99.90
2019-05-16T00:55:12.078Z,99.90
2019-05-16T00:57:39.169Z,99.90
2019-05-16T01:00:08.111Z,99.90
2019-05-16T01:02:32.797Z,99.90
2019-05-16T01:04:59.552Z,99.90
2019-05-16T01:07:27.754Z,99.90
2019-05-16T01:09:53.339Z,99.90
2019-05-16T01:12:20.082Z,99.90
2019-05-16T01:14:47.807Z,99.90
2019-05-16T01:17:13.661Z,99.90
2019-05-16T01:19:40.404Z,99.90
2019-05-16T01:22:08.324Z,99.90
2019-05-16T01:24:34.088Z,99.90
2019-05-16T01:27:00.816Z,99.90
2019-05-16T01:29:28.198Z,99.90
2019-05-16T01:31:54.412Z,99.90
2019-05-16T01:34:21.190Z,99.90
2019-05-16T01:39:48.431Z,99.90
2019-05-16T01:42:15.561Z,99.90
2019-05-16T01:44:43.327Z,99.90
2019-05-16T01:47:10.167Z,99.90
2019-05-16T01:49:38.116Z,99.90
2019-05-16T01:52:03.751Z,99.90
2019-05-16T01:54:30.598Z,99.90
2019-05-16T01:56:59.297Z,99.90
2019-05-16T01:59:24.044Z,99.90
2019-05-16T02:01:51.524Z,99.90
2019-05-16T02:04:18.505Z,99.90
2019-05-16T02:06:51.804Z,99.90
2019-05-16T02:09:11.833Z,99.90
2019-05-16T02:11:38.879Z,99.90
2019-05-16T02:14:05.406Z,99.90
2019-05-16T02:16:33.227Z,99.90
2019-05-16T02:18:59.917Z,99.90
2019-05-16T02:21:28.606Z,99.90
2019-05-16T02:23:53.443Z,99.90
2019-05-16T02:26:20.267Z,99.90
2019-05-16T02:28:47.112Z,99.90
2019-05-16T02:31:15.390Z,99.90
2019-05-16T02:33:40.859Z,99.90
2019-05-16T02:36:10.710Z,99.90
2019-05-16T02:38:34.501Z,99.90
2019-05-16T02:41:03.140Z,99.90
2019-05-16T02:43:31.071Z,99.90
2019-05-16T02:45:54.905Z,99.90
2019-05-16T02:48:21.891Z,99.90
2019-05-16T02:50:51.293Z,99.90
2019-05-16T02:53:16.059Z,99.90
2019-05-16T02:55:43.005Z,99.90
2019-05-16T02:58:11.446Z,99.90
2019-05-16T03:00:36.898Z,99.90
2019-05-16T03:03:03.735Z,99.90
2019-05-16T03:05:30.707Z,99.90
2019-05-16T03:07:57.423Z,99.90
2019-05-16T03:10:24.082Z,99.90
2019-05-16T03:12:51.301Z,99.90
2019-05-16T03:15:17.636Z,99.90
2019-05-16T03:17:44.584Z,99.90
2019-05-16T03:20:11.426Z,99.90
2019-05-16T03:22:40.750Z,99.90
2019-05-16T03:25:05.215Z,99.90
2019-05-16T03:27:32.063Z,99.90
2019-05-16T03:30:01.723Z,99.90
2019-05-16T03:32:25.728Z,99.90
2019-05-16T03:34:54.645Z,99.90
2019-05-16T03:37:25.027Z,99.90
2019-05-16T03:39:47.089Z,99.90
2019-05-16T03:42:14.649Z,99.90
2019-05-16T03:44:41.396Z,99.90
2019-05-16T03:47:11.018Z,99.90
2019-05-16T03:49:34.849Z,99.90
2019-05-16T03:52:02.268Z,99.90
2019-05-16T03:54:31.412Z,99.90
2019-05-16T03:56:56.470Z,99.90
2019-05-16T03:59:23.160Z,99.90
2019-05-16T04:01:51.124Z,99.90
2019-05-16T04:04:16.717Z,99.90
2019-05-16T04:06:43.394Z,99.90
2019-05-16T04:09:12.255Z,99.90
2019-05-16T04:11:36.905Z,99.90
2019-05-16T04:14:03.870Z,99.90
2019-05-16T04:16:31.645Z,99.90
2019-05-16T04:19:01.654Z,99.90
2019-05-16T04:21:25.320Z,99.90
2019-05-16T04:23:52.018Z,99.90
2019-05-16T04:26:21.557Z,99.90
2019-05-16T04:28:45.495Z,99.90
2019-05-16T04:31:12.192Z,99.90
2019-05-16T04:33:41.583Z,99.90
2019-05-16T04:36:06.856Z,99.90
2019-05-16T04:38:41.006Z,99.90
2019-05-16T04:41:01.462Z,99.90
2019-05-16T04:43:27.277Z,98.70
2019-05-16T04:45:53.944Z,93.20
2019-05-16T04:48:22.314Z,87.60
2019-05-16T04:50:51.201Z,87.60
2019-05-16T04:53:15.017Z,76.80
2019-05-16T04:55:42.171Z,71.00
2019-05-16T04:58:10.617Z,67.50
2019-05-16T05:00:35.279Z,62.60
2019-05-16T05:03:01.954Z,61.70
2019-05-16T05:05:33.099Z,56.20
2019-05-16T05:07:56.980Z,55.10
2019-05-16T05:10:23.720Z,55.10
2019-05-16T05:12:51.664Z,52.80
2019-05-16T05:15:21.258Z,52.70
2019-05-16T05:17:45.740Z,52.00
2019-05-16T05:20:12.456Z,50.60
2019-05-16T05:22:39.766Z,51.10
2019-05-16T05:25:06.047Z,48.00
2019-05-16T05:27:32.775Z,46.80
2019-05-16T05:30:01.056Z,46.50
2019-05-16T05:32:27.015Z,45.60
2019-05-16T05:34:53.680Z,45.60
2019-05-16T05:37:21.368Z,42.60
2019-05-16T05:39:50.262Z,42.70
2019-05-16T05:42:14.913Z,43.60
2019-05-16T05:44:41.714Z,43.70
2019-05-16T05:47:10.562Z,41.80
2019-05-16T05:49:35.959Z,43.30
2019-05-16T05:52:03.550Z,40.60
2019-05-16T05:54:30.882Z,40.60
2019-05-16T05:56:56.978Z,41.80
2019-05-16T05:59:23.731Z,43.50
2019-05-16T06:01:51.702Z,41.50
2019-05-16T06:04:17.201Z,41.30
2019-05-16T06:06:45.094Z,39.50
2019-05-16T06:09:23.917Z,40.50
2019-05-16T06:11:37.576Z,41.70
2019-05-16T06:14:04.339Z,40.80
2019-05-16T06:16:31.084Z,40.80
2019-05-16T06:18:57.771Z,39.90
2019-05-16T06:21:25.214Z,43.00
2019-05-16T06:23:51.935Z,42.90
2019-05-16T06:26:20.394Z,40.50
2019-05-16T06:28:45.476Z,41.80
2019-05-16T06:31:14.138Z,41.90
2019-05-16T06:33:41.145Z,42.90
2019-05-16T06:36:05.761Z,40.50
2019-05-16T06:38:33.263Z,43.70
2019-05-16T06:41:00.489Z,43.70
2019-05-16T06:43:26.743Z,42.70
2019-05-16T06:45:53.453Z,41.20
2019-05-16T06:48:21.525Z,42.80
2019-05-16T06:50:51.125Z,42.90
2019-05-16T06:53:15.248Z,42.90
2019-05-16T06:55:41.965Z,41.80
2019-05-16T06:58:10.611Z,38.40
2019-05-16T07:00:37.077Z,38.90
2019-05-16T07:03:04.502Z,37.70
2019-05-16T07:05:31.211Z,37.70
2019-05-16T07:07:59.778Z,39.60
2019-05-16T07:10:24.735Z,41.50
2019-05-16T07:12:51.525Z,41.30
2019-05-16T07:15:20.441Z,41.60
2019-05-16T07:17:45.756Z,43.20
2019-05-16T07:20:12.557Z,43.20
2019-05-16T07:22:40.597Z,42.80
2019-05-16T07:25:06.054Z,41.40
2019-05-16T07:27:32.812Z,39.70
2019-05-16T07:30:01.151Z,40.60
2019-05-16T07:32:26.286Z,40.00
2019-05-16T07:34:53.005Z,41.80
2019-05-16T07:37:20.175Z,39.10
2019-05-16T07:39:46.507Z,38.90
2019-05-16T07:42:13.233Z,40.20
2019-05-16T07:44:40.832Z,40.80
2019-05-16T07:47:06.766Z,42.30
2019-05-16T07:49:33.449Z,42.70
2019-05-16T07:52:00.670Z,43.90
2019-05-16T07:54:26.959Z,42.80
2019-05-16T07:56:58.894Z,40.40
2019-05-16T07:59:21.185Z,39.50
2019-05-16T08:01:47.926Z,39.40
2019-05-16T08:04:14.620Z,41.80
2019-05-16T08:06:41.849Z,42.10
2019-05-16T08:09:12.083Z,41.20
2019-05-16T08:11:35.747Z,41.20
2019-05-16T08:14:02.460Z,41.50
2019-05-16T08:16:30.622Z,40.30
2019-05-16T08:18:56.735Z,40.30
2019-05-16T08:21:27.540Z,40.20
2019-05-16T08:23:50.633Z,40.50
2019-05-16T08:26:16.977Z,40.90
2019-05-16T08:28:43.738Z,39.30
2019-05-16T08:31:11.801Z,39.90
2019-05-16T08:33:37.218Z,42.90
2019-05-16T08:36:08.104Z,44.60
2019-05-16T08:38:31.084Z,44.00
2019-05-16T08:41:07.937Z,42.30
2019-05-16T08:43:24.416Z,44.40
2019-05-16T08:45:51.937Z,42.30
2019-05-16T08:48:22.356Z,42.60
2019-05-16T08:50:53.857Z,45.30
2019-05-16T08:53:13.802Z,45.20
2019-05-16T08:55:43.368Z,44.80
2019-05-16T08:58:05.877Z,46.30
2019-05-16T09:00:33.799Z,47.10
2019-05-16T09:03:01.787Z,48.20
2019-05-16T09:05:31.327Z,49.50
2019-05-16T09:08:00.613Z,49.40
2019-05-16T09:12:50.218Z,52.10
2019-05-16T09:15:17.177Z,52.20
2019-05-16T09:17:43.799Z,51.70
2019-05-16T09:20:10.529Z,51.30
2019-05-16T09:22:37.903Z,51.80
2019-05-16T09:25:04.066Z,54.10
2019-05-16T09:27:30.741Z,52.90
2019-05-16T09:29:57.492Z,53.60
2019-05-16T09:32:24.220Z,53.50
2019-05-16T09:34:50.970Z,52.60
2019-05-16T09:37:18.092Z,52.00
2019-05-16T09:39:47.914Z,54.20
2019-05-16T09:42:12.827Z,52.40
2019-05-16T09:44:39.516Z,52.30
2019-05-16T09:47:07.545Z,53.60
2019-05-16T09:49:33.063Z,52.40
2019-05-16T09:51:59.790Z,51.30
2019-05-16T09:54:27.384Z,50.70
2019-05-16T09:56:53.390Z,52.10
2019-05-16T09:59:20.099Z,55.00
2019-05-16T10:01:47.797Z,53.50
2019-05-16T10:04:17.239Z,54.40
2019-05-16T10:06:41.281Z,54.40
2019-05-16T10:09:08.007Z,55.10
2019-05-16T10:11:40.956Z,54.30
2019-05-16T10:14:01.614Z,54.00
2019-05-16T10:16:28.378Z,54.20
2019-05-16T10:18:56.759Z,55.00
2019-05-16T10:21:21.873Z,53.00
2019-05-16T10:23:49.319Z,52.90
2019-05-16T10:26:19.225Z,54.60
2019-05-16T10:28:43.621Z,54.70
2019-05-16T10:31:10.339Z,54.90
2019-05-16T10:33:38.932Z,56.10
2019-05-16T10:36:03.988Z,54.80
2019-05-16T10:38:30.678Z,54.20
2019-05-16T10:40:57.450Z,55.50
2019-05-16T10:43:26.313Z,54.60
2019-05-16T10:45:53.529Z,55.00
2019-05-16T10:48:17.809Z,55.10
2019-05-16T10:50:44.704Z,53.30
2019-05-16T10:53:28.414Z,55.20
2019-05-16T10:55:38.205Z,54.80
2019-05-16T10:58:07.443Z,52.60
2019-05-16T11:00:57.715Z,52.70
2019-05-16T11:02:59.452Z,54.30
2019-05-16T11:05:33.112Z,55.20
2019-05-16T11:07:53.697Z,54.90
2019-05-16T11:10:20.514Z,55.20
2019-05-16T11:12:51.820Z,55.00
2019-05-16T11:15:14.023Z,53.50
2019-05-16T11:17:40.828Z,54.90
2019-05-16T11:20:07.651Z,56.90
2019-05-16T11:22:36.782Z,53.50
2019-05-16T11:25:01.221Z,54.60
2019-05-16T11:27:28.686Z,52.90
2019-05-16T11:29:56.649Z,53.80
2019-05-16T11:32:22.892Z,53.80
2019-05-16T11:34:50.322Z,53.70
2019-05-16T11:37:23.867Z,53.70
2019-05-16T11:39:50.847Z,53.90
2019-05-16T11:42:17.708Z,54.40
2019-05-16T11:44:47.604Z,54.00
2019-05-16T11:47:11.146Z,54.80
2019-05-16T11:49:37.866Z,54.10
2019-05-16T11:52:07.375Z,54.00
2019-05-16T11:54:31.496Z,54.10
2019-05-16T11:56:58.190Z,55.00
2019-05-16T11:59:24.895Z,54.30
2019-05-16T12:01:51.657Z,54.80
2019-05-16T12:04:19.069Z,53.50
2019-05-16T12:06:46.830Z,53.50
2019-05-16T12:09:13.291Z,55.00
2019-05-16T12:11:40.066Z,54.90
2019-05-16T12:14:07.297Z,55.90
2019-05-16T12:16:33.520Z,54.50
2019-05-16T12:19:01.038Z,55.60
2019-05-16T12:21:27.719Z,55.50
2019-05-16T12:23:55.165Z,54.80
2019-05-16T12:26:22.683Z,55.40
2019-05-16T12:28:49.406Z,55.40
2019-05-16T12:31:17.452Z,55.70
2019-05-16T12:33:42.946Z,54.40
2019-05-16T12:36:10.407Z,54.70
2019-05-16T12:38:38.214Z,55.40
2019-05-16T12:41:06.994Z,54.70
2019-05-16T12:43:44.556Z,53.50
2019-05-16T12:45:58.932Z,53.50
2019-05-16T12:48:25.647Z,54.10
2019-05-16T12:50:52.366Z,53.30
2019-05-16T12:53:23.373Z,54.90
2019-05-16T12:55:47.690Z,53.50
2019-05-16T12:58:13.604Z,54.40
2019-05-16T13:00:44.013Z,56.00
2019-05-16T13:03:07.264Z,54.00
2019-05-16T13:05:33.169Z,54.80
2019-05-16T13:07:59.887Z,53.30
2019-05-16T13:10:27.142Z,55.30
2019-05-16T13:12:53.377Z,53.20
2019-05-16T13:15:20.871Z,54.30
2019-05-16T13:17:47.613Z,54.30
2019-05-16T13:20:14.336Z,53.20
2019-05-16T13:22:41.091Z,55.00
2019-05-16T13:25:07.846Z,54.70
2019-05-16T13:27:37.023Z,54.60
2019-05-16T13:30:01.505Z,54.10
2019-05-16T13:32:28.212Z,54.20
2019-05-16T13:34:59.210Z,54.80
2019-05-16T13:39:56.905Z,54.20
2019-05-16T13:42:21.869Z,55.40
2019-05-16T13:44:48.551Z,55.20
2019-05-16T13:47:17.333Z,55.40
2019-05-16T13:49:42.138Z,55.10
2019-05-16T13:52:08.903Z,54.30
2019-05-16T13:54:36.330Z,53.60
2019-05-16T13:57:02.513Z,54.60
2019-05-16T13:59:29.202Z,54.70
2019-05-16T14:01:57.349Z,54.90
2019-05-16T14:04:23.825Z,56.40
2019-05-16T14:06:51.248Z,55.40
2019-05-16T14:09:18.001Z,55.40
2019-05-16T14:11:46.439Z,56.30
2019-05-16T14:14:11.915Z,57.90
2019-05-16T14:16:38.747Z,58.70
2019-05-16T14:19:07.378Z,59.60
2019-05-16T14:21:32.258Z,58.50
2019-05-16T14:23:59.144Z,59.90
2019-05-16T14:26:25.909Z,61.00
2019-05-16T14:28:52.733Z,60.40
2019-05-16T14:31:19.404Z,60.10
2019-05-16T14:33:47.460Z,60.30
2019-05-16T14:36:13.672Z,60.30
2019-05-16T14:38:40.342Z,60.20
2019-05-16T14:41:08.275Z,59.80
2019-05-16T14:43:36.447Z,59.80
2019-05-16T14:46:01.356Z,60.40
2019-05-16T14:48:28.072Z,59.00
2019-05-16T14:50:57.304Z,59.60
2019-05-16T14:53:21.522Z,60.60
2019-05-16T14:55:48.300Z,60.10
2019-05-16T14:58:15.086Z,60.60
2019-05-16T15:00:42.105Z,60.00
2019-05-16T15:03:08.909Z,60.40
2019-05-16T15:05:41.757Z,60.40
2019-05-16T15:08:02.736Z,61.10
2019-05-16T15:10:29.524Z,60.50
2019-05-16T15:12:57.061Z,60.40
2019-05-16T15:15:25.610Z,60.50
2019-05-16T15:17:51.614Z,60.00
2019-05-16T15:20:18.485Z,60.50
2019-05-16T15:22:47.234Z,60.60
2019-05-16T15:25:12.721Z,60.30
2019-05-16T15:27:40.215Z,59.60
2019-05-16T15:30:07.050Z,59.60
2019-05-16T15:32:33.774Z,59.80
2019-05-16T15:35:00.508Z,61.30
2019-05-16T15:37:27.447Z,60.40
2019-05-16T15:39:54.461Z,59.70
2019-05-16T15:42:21.296Z,62.30
2019-05-16T15:44:48.109Z,61.10
2019-05-16T15:47:17.424Z,60.70
2019-05-16T15:49:41.739Z,61.10
2019-05-16T15:52:09.302Z,62.00
2019-05-16T15:54:37.634Z,62.00
2019-05-16T15:57:03.833Z,62.00
2019-05-16T15:59:31.289Z,62.10
2019-05-16T16:01:58.764Z,62.50
2019-05-16T16:04:27.077Z,62.50
2019-05-16T16:06:52.408Z,62.00
2019-05-16T16:09:19.170Z,61.90
2019-05-16T16:11:48.656Z,62.50
2019-05-16T16:14:13.486Z,62.60
2019-05-16T16:16:40.676Z,63.50
2019-05-16T16:19:08.309Z,63.90
2019-05-16T16:21:37.778Z,63.90
2019-05-16T16:24:05.003Z,64.10
2019-05-16T16:26:28.855Z,64.50
2019-05-16T16:28:55.541Z,65.20
2019-05-16T16:31:23.063Z,67.10
2019-05-16T16:33:50.119Z,67.10
2019-05-16T16:36:17.259Z,67.90
2019-05-16T16:38:44.473Z,69.20
2019-05-16T16:41:11.251Z,69.10
2019-05-16T16:43:38.690Z,69.30
2019-05-16T16:46:12.206Z,69.30
2019-05-16T16:48:32.395Z,69.40
2019-05-16T16:50:59.199Z,70.20
2019-05-16T16:53:27.006Z,69.90
2019-05-16T16:55:53.545Z,70.40
2019-05-16T16:58:20.331Z,70.50
2019-05-16T17:00:47.982Z,70.20
2019-05-16T17:03:16.560Z,70.20
2019-05-16T17:05:42.235Z,70.20
2019-05-16T17:08:08.941Z,70.30
2019-05-16T17:10:38.059Z,70.70
2019-05-16T17:13:02.488Z,70.40
2019-05-16T17:15:29.979Z,70.60
2019-05-16T17:17:57.376Z,70.60
2019-05-16T17:20:24.212Z,70.40
2019-05-16T17:22:50.953Z,70.40
2019-05-16T17:25:17.788Z,71.00
2019-05-16T17:27:46.681Z,71.70
2019-05-16T17:30:12.089Z,71.70
2019-05-16T17:32:38.810Z,71.70
2019-05-16T17:35:06.788Z,72.40
2019-05-16T17:37:33.044Z,72.40
2019-05-16T17:39:59.726Z,72.40
2019-05-16T17:42:27.177Z,72.40
2019-05-16T17:44:53.211Z,73.30
2019-05-16T17:47:20.737Z,73.20
2019-05-16T17:49:47.411Z,73.10
2019-05-16T17:52:16.333Z,73.50
2019-05-16T17:54:40.988Z,73.80
2019-05-16T17:57:08.434Z,73.90
2019-05-16T17:59:37.749Z,73.80
2019-05-16T18:02:02.079Z,74.70
2019-05-16T18:04:28.783Z,75.00
2019-05-16T18:06:57.524Z,74.90
2019-05-16T18:09:22.341Z,76.20
2019-05-16T18:11:49.025Z,76.40
2019-05-16T18:14:17.180Z,77.20
2019-05-16T18:16:53.539Z,80.30
2019-05-16T18:19:10.114Z,80.30
2019-05-16T18:21:37.005Z,82.20
2019-05-16T18:24:03.657Z,84.10
2019-05-16T18:26:30.471Z,88.60
2019-05-16T18:28:57.142Z,92.20
2019-05-16T18:31:23.824Z,92.40
2019-05-16T18:33:50.541Z,96.30
2019-05-16T18:36:17.217Z,98.70
2019-05-16T18:38:43.996Z,99.90
2019-05-16T18:41:10.684Z,99.90
2019-05-16T18:43:37.425Z,99.90
2019-05-16T18:46:04.240Z,99.90
2019-05-16T18:48:30.993Z,99.90
2019-05-16T18:50:58.710Z,99.90
2019-05-16T18:53:27.007Z,99.90
2019-05-16T18:55:53.602Z,99.90
2019-05-16T18:58:21.079Z,99.90
2019-05-16T19:00:47.870Z,99.90
2019-05-16T19:03:16.452Z,99.90
2019-05-16T19:05:42.138Z,99.90
2019-05-16T19:08:08.830Z,99.90
2019-05-16T19:10:36.652Z,99.90
2019-05-16T19:13:02.385Z,99.90
2019-05-16T19:15:29.104Z,99.90
2019-05-16T19:17:58.456Z,99.90
2019-05-16T19:20:23.377Z,99.90
2019-05-16T19:22:50.054Z,99.90
2019-05-16T19:25:18.444Z,99.90
2019-05-16T19:27:43.619Z,99.90
2019-05-16T19:30:10.383Z,99.90
2019-05-16T19:32:39.393Z,99.90
2019-05-16T19:35:06.858Z,99.90
2019-05-16T19:37:31.479Z,99.90
2019-05-16T19:39:58.174Z,99.90
2019-05-16T19:42:26.652Z,99.90
2019-05-16T19:44:51.714Z,99.90
2019-05-16T19:47:18.399Z,99.90
2019-05-16T19:49:46.431Z,99.90
2019-05-16T19:52:11.836Z,99.90
2019-05-16T19:54:38.493Z,99.90
2019-05-16T19:57:07.210Z,99.90
2019-05-16T19:59:32.771Z,99.90
2019-05-16T20:01:59.564Z,99.90
2019-05-16T20:04:27.387Z,99.90
2019-05-16T20:06:53.139Z,99.90
2019-05-16T20:09:19.832Z,99.90
2019-05-16T20:11:46.544Z,99.90
2019-05-16T20:14:14.036Z,99.90
2019-05-16T20:16:40.735Z,99.90
2019-05-16T20:19:07.429Z,99.90
2019-05-16T20:21:36.711Z,99.90
2019-05-16T20:24:01.199Z,99.90
2019-05-16T20:26:27.971Z,99.90
2019-05-16T20:28:59.238Z,99.90
2019-05-16T20:31:21.484Z,99.90
2019-05-16T20:33:48.948Z,99.90
2019-05-16T20:36:17.314Z,99.90
2019-05-16T20:38:42.457Z,99.90
2019-05-16T20:41:09.194Z,99.90
2019-05-16T20:43:36.830Z,99.90
2019-05-16T20:46:02.665Z,99.90
2019-05-16T20:48:30.187Z,99.90
2019-05-16T20:50:56.955Z,99.90
2019-05-16T20:53:27.160Z,99.90
2019-05-16T20:55:52.032Z,99.90
2019-05-16T20:58:18.706Z,99.90
2019-05-16T21:00:49.399Z,99.90
2019-05-16T21:03:13.077Z,99.90
2019-05-16T21:05:39.787Z,99.90
2019-05-16T21:08:06.774Z,99.90
2019-05-16T21:10:33.445Z,99.90
2019-05-16T21:13:00.172Z,99.90
2019-05-16T21:15:27.634Z,99.90
2019-05-16T21:17:56.580Z,99.90
2019-05-16T21:20:21.148Z,99.90
2019-05-16T21:22:47.930Z,99.90
2019-05-16T21:25:16.878Z,99.90
2019-05-16T21:27:42.915Z,99.90
2019-05-16T21:30:10.535Z,99.90
2019-05-16T21:32:38.114Z,99.90
2019-05-16T21:35:07.134Z,99.90
2019-05-16T21:37:32.447Z,99.90
2019-05-16T21:39:59.784Z,99.90
2019-05-16T21:42:27.115Z,99.90
2019-05-16T21:44:53.611Z,99.90
2019-05-16T21:47:20.382Z,99.90
2019-05-16T21:49:47.305Z,99.90
2019-05-16T21:52:14.093Z,99.90
2019-05-16T21:54:40.868Z,99.90
2019-05-16T21:57:07.673Z,99.90
2019-05-16T21:59:34.382Z,99.90
2019-05-16T22:02:01.528Z,99.90
2019-05-16T22:04:28.427Z,99.90
2019-05-16T22:06:56.650Z,99.90
2019-05-16T22:09:22.016Z,99.90
2019-05-16T22:11:48.693Z,99.90
2019-05-16T22:14:17.075Z,99.90
2019-05-16T22:16:42.288Z,99.90
2019-05-16T22:19:08.949Z,99.90
2019-05-16T22:21:36.383Z,99.90
2019-05-16T22:24:03.940Z,99.90
2019-05-16T22:26:30.623Z,99.90
2019-05-16T22:28:57.615Z,99.90
2019-05-16T22:31:24.277Z,99.90
2019-05-16T22:33:51.722Z,99.90
2019-05-16T22:36:18.474Z,99.90
2019-05-16T22:38:45.190Z,99.90
2019-05-16T22:41:11.882Z,99.90
2019-05-16T22:43:38.622Z,99.90
2019-05-16T22:46:06.424Z,99.90
2019-05-16T22:48:32.927Z,99.90
2019-05-16T22:50:59.618Z,99.90
2019-05-16T22:53:27.186Z,99.90
2019-05-16T22:55:53.115Z,99.90
2019-05-16T22:58:20.535Z,99.90
2019-05-16T23:00:47.280Z,99.90
2019-05-16T23:03:14.069Z,99.90
2019-05-16T23:05:40.806Z,99.90
2019-05-16T23:08:09.897Z,99.90
2019-05-16T23:10:36.605Z,99.90
2019-05-16T23:13:01.092Z,99.90
2019-05-16T23:15:28.585Z,99.90
2019-05-16T23:17:57.176Z,99.90
2019-05-16T23:20:22.099Z,99.90
2019-05-16T23:22:48.814Z,99.90
2019-05-16T23:25:17.116Z,99.90
2019-05-16T23:27:43.044Z,99.90
2019-05-16T23:30:09.808Z,99.90
2019-05-16T23:32:36.607Z,99.90
2019-05-16T23:35:06.646Z,99.90
2019-05-16T23:37:31.133Z,99.90
2019-05-16T23:39:57.841Z,99.90
2019-05-16T23:42:26.393Z,99.90
2019-05-16T23:44:51.349Z,99.90
2019-05-16T23:47:18.022Z,99.90
2019-05-16T23:49:47.142Z,99.90
2019-05-16T23:52:12.219Z,99.90
2019-05-16T23:54:38.985Z,99.90
2019-05-16T23:57:06.710Z,99.90
2019-05-16T23:59:33.228Z,99.90
